createdAt,value
2023-05-21T00:00:38.669Z,15.03
2023-05-21T00:03:13.769Z,14.77
2023-05-21T00:05:53.485Z,14.62
2023-05-21T00:08:23.051Z,14.26
2023-05-21T00:10:49.654Z,14.02
2023-05-21T00:13:16.416Z,13.78
2023-05-21T00:15:45.329Z,14.30
2023-05-21T00:18:12.107Z,14.70
2023-05-21T00:20:41.126Z,14.57
2023-05-21T00:23:07.870Z,14.77
2023-05-21T00:25:34.723Z,14.71
2023-05-21T00:28:01.670Z,14.86
2023-05-21T00:30:28.288Z,14.61
2023-05-21T00:32:55.009Z,14.63
2023-05-21T00:35:21.802Z,14.86
2023-05-21T00:37:48.487Z,15.01
2023-05-21T00:40:15.675Z,14.91
2023-05-21T00:42:46.543Z,14.96
2023-05-21T00:45:14.846Z,14.74
2023-05-21T00:47:42.127Z,14.91
2023-05-21T00:50:16.250Z,14.64
2023-05-21T00:52:44.103Z,14.42
2023-05-21T00:55:11.028Z,14.41
2023-05-21T00:57:38.286Z,14.10
2023-05-21T01:00:10.749Z,13.80
2023-05-21T01:02:38.306Z,14.23
2023-05-21T01:05:07.910Z,14.34
2023-05-21T01:07:35.315Z,14.11
2023-05-21T01:10:06.155Z,14.40
2023-05-21T01:12:36.153Z,14.54
2023-05-21T01:15:04.158Z,14.52
2023-05-21T01:17:31.985Z,14.76
2023-05-21T01:19:59.491Z,14.63
2023-05-21T01:22:28.594Z,14.86
2023-05-21T01:24:55.613Z,14.79
2023-05-21T01:27:22.920Z,14.62
2023-05-21T01:29:50.393Z,14.95
2023-05-21T01:32:17.055Z,14.75
2023-05-21T01:35:02.454Z,14.76
2023-05-21T01:37:49.918Z,14.68
2023-05-21T01:40:22.481Z,14.61
2023-05-21T01:42:49.411Z,14.67
2023-05-21T01:45:16.389Z,14.41
2023-05-21T01:47:47.739Z,14.12
2023-05-21T01:50:17.690Z,13.96
2023-05-21T01:52:56.939Z,14.19
2023-05-21T01:55:24.834Z,14.28
2023-05-21T01:57:53.522Z,14.06
2023-05-21T02:00:24.180Z,14.15
2023-05-21T02:02:51.859Z,14.17
2023-05-21T02:05:21.711Z,14.37
2023-05-21T02:07:49.841Z,14.40
2023-05-21T02:10:19.379Z,14.23
2023-05-21T02:12:46.399Z,14.44
2023-05-21T02:15:16.922Z,14.38
2023-05-21T02:17:44.433Z,14.26
2023-05-21T02:20:12.394Z,14.09
2023-05-21T02:22:40.575Z,14.00
2023-05-21T02:25:14.704Z,14.21
2023-05-21T02:27:42.571Z,13.98
2023-05-21T02:30:10.670Z,13.87
2023-05-21T02:32:37.673Z,14.10
2023-05-21T02:35:04.689Z,14.10
2023-05-21T02:37:34.856Z,13.68
2023-05-21T02:40:07.994Z,13.42
2023-05-21T02:42:39.200Z,13.37
2023-05-21T02:45:10.281Z,13.91
2023-05-21T02:47:39.334Z,13.94
2023-05-21T02:50:07.927Z,13.77
2023-05-21T02:52:38.408Z,13.72
2023-05-21T02:55:05.275Z,13.75
2023-05-21T02:57:31.911Z,13.66
2023-05-21T02:59:58.603Z,13.83
2023-05-21T03:02:25.334Z,13.96
2023-05-21T03:04:52.476Z,13.92
2023-05-21T03:07:20.087Z,13.76
2023-05-21T03:09:54.947Z,13.69
2023-05-21T03:12:21.685Z,13.44
2023-05-21T03:14:49.387Z,13.55
2023-05-21T03:17:16.485Z,13.53
2023-05-21T03:19:46.573Z,13.36
2023-05-21T03:22:13.275Z,13.27
2023-05-21T03:24:39.989Z,13.56
2023-05-21T03:27:07.226Z,13.73
2023-05-21T03:29:34.804Z,13.68
2023-05-21T03:32:08.906Z,13.26
2023-05-21T03:34:35.913Z,12.92
2023-05-21T03:37:03.139Z,13.20
2023-05-21T03:39:31.223Z,12.91
2023-05-21T03:42:01.027Z,12.95
2023-05-21T03:44:50.068Z,13.18
2023-05-21T03:47:42.113Z,13.85
2023-05-21T03:50:13.005Z,14.00
2023-05-21T03:52:40.508Z,13.91
2023-05-21T03:55:07.522Z,14.04
2023-05-21T03:57:35.196Z,14.20
2023-05-21T04:00:01.888Z,14.21
2023-05-21T04:02:30.556Z,14.08
2023-05-21T04:04:57.927Z,14.22
2023-05-21T04:07:24.875Z,14.01
2023-05-21T04:09:51.570Z,14.12
2023-05-21T04:12:20.268Z,14.29
2023-05-21T04:14:47.558Z,13.98
2023-05-21T04:17:19.268Z,14.11
2023-05-21T04:19:46.052Z,14.15
2023-05-21T04:22:13.451Z,14.00
2023-05-21T04:24:42.464Z,14.25
2023-05-21T04:27:16.817Z,14.45
2023-05-21T04:29:44.576Z,14.56
2023-05-21T04:32:11.779Z,14.44
2023-05-21T04:34:39.933Z,14.34
2023-05-21T04:37:09.458Z,14.39
2023-05-21T04:39:36.388Z,14.48
2023-05-21T04:42:03.419Z,14.23
2023-05-21T04:44:30.382Z,14.41
2023-05-21T04:46:59.043Z,14.20
2023-05-21T04:49:25.765Z,14.65
2023-05-21T04:51:53.302Z,14.94
2023-05-21T04:54:23.376Z,14.73
2023-05-21T04:56:50.187Z,14.44
2023-05-21T04:59:17.483Z,14.55
2023-05-21T05:01:44.292Z,14.78
2023-05-21T05:04:10.982Z,15.03
2023-05-21T05:06:37.681Z,14.93
2023-05-21T05:09:04.900Z,14.88
2023-05-21T05:11:31.630Z,14.96
2023-05-21T05:13:58.330Z,15.21
2023-05-21T05:16:28.419Z,15.58
2023-05-21T05:18:56.957Z,15.71
2023-05-21T05:21:24.195Z,15.51
2023-05-21T05:23:51.085Z,15.66
2023-05-21T05:26:19.807Z,16.00
2023-05-21T05:28:46.863Z,15.56
2023-05-21T05:31:13.852Z,15.86
2023-05-21T05:33:44.762Z,15.73
2023-05-21T05:36:11.857Z,15.96
2023-05-21T05:38:38.697Z,16.09
2023-05-21T05:41:05.341Z,16.03
2023-05-21T05:43:35.055Z,16.31
2023-05-21T05:46:01.856Z,16.42
2023-05-21T05:48:28.809Z,16.58
2023-05-21T05:50:57.252Z,16.71
2023-05-21T05:53:25.851Z,16.70
2023-05-21T05:55:53.140Z,16.52
2023-05-21T05:58:20.010Z,16.77
2023-05-21T06:01:06.831Z,16.82
2023-05-21T06:03:33.812Z,16.66
2023-05-21T06:06:06.264Z,16.89
2023-05-21T06:08:37.424Z,16.65
2023-05-21T06:11:04.888Z,16.93
2023-05-21T06:13:32.128Z,17.14
2023-05-21T06:15:58.874Z,16.62
2023-05-21T06:18:25.750Z,16.70
2023-05-21T06:20:53.047Z,17.05
2023-05-21T06:23:24.447Z,17.03
2023-05-21T06:25:51.156Z,17.38
2023-05-21T06:28:19.207Z,17.41
2023-05-21T06:30:47.541Z,17.07
2023-05-21T06:33:16.668Z,17.33
2023-05-21T06:35:44.032Z,17.16
2023-05-21T06:38:11.476Z,17.64
2023-05-21T06:40:38.144Z,17.51
2023-05-21T06:43:05.498Z,17.66
2023-05-21T06:45:51.010Z,17.74
2023-05-21T06:48:27.342Z,17.87
2023-05-21T06:50:54.290Z,17.98
2023-05-21T06:53:23.859Z,17.70
2023-05-21T06:55:53.934Z,17.91
2023-05-21T06:58:31.311Z,17.74
2023-05-21T07:00:58.426Z,17.93
2023-05-21T07:03:27.329Z,17.88
2023-05-21T07:05:54.229Z,18.07
2023-05-21T07:08:21.413Z,18.17
2023-05-21T07:10:49.192Z,18.21
2023-05-21T07:13:17.336Z,18.44
2023-05-21T07:15:44.493Z,18.42
2023-05-21T07:18:12.139Z,18.69
2023-05-21T07:20:39.210Z,18.52
2023-05-21T07:23:08.966Z,18.39
2023-05-21T07:25:36.258Z,18.48
2023-05-21T07:28:06.531Z,18.63
2023-05-21T07:30:33.725Z,18.90
2023-05-21T07:33:02.577Z,18.87
2023-05-21T07:35:29.509Z,19.05
2023-05-21T07:37:56.512Z,19.22
2023-05-21T07:40:23.294Z,19.36
2023-05-21T07:42:51.332Z,19.53
2023-05-21T07:45:19.864Z,19.37
2023-05-21T07:47:49.440Z,19.41
2023-05-21T07:50:17.232Z,19.75
2023-05-21T07:52:44.743Z,19.66
2023-05-21T07:55:12.850Z,19.90
2023-05-21T07:57:40.849Z,19.98
2023-05-21T08:13:43.920Z,20.15
2023-05-21T08:16:13.085Z,20.21
2023-05-21T08:18:39.794Z,20.26
2023-05-21T08:21:06.517Z,20.22
2023-05-21T08:23:33.241Z,20.34
2023-05-21T08:26:00.477Z,20.56
2023-05-21T08:28:28.816Z,20.66
2023-05-21T08:30:56.418Z,20.78
2023-05-21T08:33:24.465Z,20.87
2023-05-21T08:35:51.666Z,20.75
2023-05-21T08:38:22.980Z,20.93
2023-05-21T08:41:13.309Z,20.97
2023-05-21T08:43:40.193Z,21.11
2023-05-21T08:46:06.986Z,21.03
2023-05-21T08:48:37.396Z,20.92
2023-05-21T08:51:04.362Z,20.98
2023-05-21T08:53:35.188Z,21.08
2023-05-21T08:56:05.716Z,21.16
2023-05-21T08:58:46.578Z,21.29
2023-05-21T09:01:22.920Z,21.53
2023-05-21T09:04:04.868Z,21.83
2023-05-21T09:06:35.640Z,21.75
2023-05-21T09:09:06.709Z,21.39
2023-05-21T09:11:42.267Z,21.47
2023-05-21T09:14:10.146Z,21.67
2023-05-21T09:17:01.473Z,21.95
2023-05-21T09:19:32.176Z,22.23
2023-05-21T09:22:06.245Z,22.11
2023-05-21T09:24:36.256Z,22.27
2023-05-21T09:27:08.033Z,22.14
2023-05-21T09:29:35.590Z,22.27
2023-05-21T09:32:06.098Z,22.42
2023-05-21T09:34:36.182Z,22.47
2023-05-21T09:37:03.721Z,22.52
2023-05-21T09:39:33.516Z,22.85
2023-05-21T09:42:02.786Z,23.14
2023-05-21T09:44:29.586Z,23.61
2023-05-21T09:47:00.499Z,23.46
2023-05-21T09:49:28.215Z,23.90
2023-05-21T09:51:57.162Z,23.92
2023-05-21T09:54:24.435Z,23.57
2023-05-21T09:56:52.311Z,23.52
2023-05-21T09:59:20.597Z,23.47
2023-05-21T10:01:47.273Z,23.66
2023-05-21T10:04:14.188Z,23.82
2023-05-21T10:06:43.115Z,23.93
2023-05-21T10:09:10.876Z,23.93
2023-05-21T10:11:37.926Z,23.97
2023-05-21T10:14:04.527Z,24.23
2023-05-21T10:16:34.460Z,24.54
2023-05-21T10:19:01.403Z,24.91
2023-05-21T10:21:28.479Z,24.60
2023-05-21T10:23:56.584Z,24.68
2023-05-21T10:26:24.254Z,24.82
2023-05-21T10:28:51.262Z,24.86
2023-05-21T10:31:18.099Z,24.72
2023-05-21T10:33:45.035Z,25.06
2023-05-21T10:36:11.950Z,24.76
2023-05-21T10:38:38.860Z,24.63
2023-05-21T10:41:07.232Z,25.00
2023-05-21T10:43:43.069Z,25.36
2023-05-21T10:46:09.736Z,25.23
2023-05-21T10:48:36.730Z,25.44
2023-05-21T10:51:15.740Z,25.54
2023-05-21T10:53:52.108Z,25.50
2023-05-21T10:56:25.740Z,25.52
2023-05-21T10:59:10.131Z,25.53
2023-05-21T11:01:38.118Z,26.09
2023-05-21T11:04:05.415Z,26.47
2023-05-21T11:06:32.190Z,26.40
2023-05-21T11:09:14.648Z,26.58
2023-05-21T11:11:47.163Z,26.92
2023-05-21T11:14:31.643Z,26.96
2023-05-21T11:17:01.242Z,27.23
2023-05-21T11:19:35.689Z,28.13
2023-05-21T11:22:05.854Z,28.01
2023-05-21T11:24:32.711Z,28.17
2023-05-21T11:27:02.410Z,28.17
2023-05-21T11:29:42.237Z,28.35
2023-05-21T11:32:09.479Z,29.32
2023-05-21T11:34:46.184Z,29.65
2023-05-21T11:37:20.821Z,30.95
2023-05-21T11:39:48.146Z,30.74
2023-05-21T11:42:27.700Z,30.32
2023-05-21T11:44:56.196Z,30.91
2023-05-21T11:47:22.931Z,31.10
2023-05-21T11:49:49.668Z,29.79
2023-05-21T11:52:16.585Z,30.42
2023-05-21T11:54:46.558Z,31.30
2023-05-21T11:57:17.414Z,32.50
2023-05-21T11:59:44.762Z,31.60
2023-05-21T12:02:16.104Z,30.70
2023-05-21T12:04:43.124Z,30.62
2023-05-21T12:07:10.922Z,31.38
2023-05-21T12:09:45.346Z,31.61
2023-05-21T12:12:16.471Z,31.33
2023-05-21T12:14:52.684Z,30.49
2023-05-21T12:17:20.626Z,29.43
2023-05-21T12:19:47.850Z,28.83
2023-05-21T12:22:17.587Z,28.49
2023-05-21T12:24:47.480Z,28.31
2023-05-21T12:27:16.816Z,29.61
2023-05-21T12:29:47.106Z,30.51
2023-05-21T12:32:14.667Z,30.00
2023-05-21T12:34:48.825Z,29.92
2023-05-21T12:37:31.295Z,28.93
2023-05-21T12:39:59.188Z,28.63
2023-05-21T12:42:35.643Z,29.09
2023-05-21T12:45:11.642Z,28.40
2023-05-21T12:47:38.450Z,29.10
2023-05-21T12:50:12.011Z,28.60
2023-05-21T12:52:42.339Z,28.90
2023-05-21T12:55:10.497Z,28.99
2023-05-21T12:57:38.901Z,28.42
2023-05-21T13:00:10.446Z,28.63
2023-05-21T13:02:44.467Z,28.40
2023-05-21T13:05:17.508Z,28.92
2023-05-21T13:07:46.916Z,28.58
2023-05-21T13:10:16.105Z,28.53
2023-05-21T13:12:45.144Z,28.02
2023-05-21T13:15:11.924Z,28.15
2023-05-21T13:17:38.689Z,28.35
2023-05-21T13:20:15.884Z,29.08
2023-05-21T13:22:43.902Z,29.29
2023-05-21T13:25:14.062Z,29.61
2023-05-21T13:27:44.540Z,30.25
2023-05-21T13:30:11.810Z,30.79
2023-05-21T13:32:39.244Z,30.65
2023-05-21T13:35:06.478Z,31.31
2023-05-21T13:37:34.749Z,31.92
2023-05-21T13:40:01.434Z,32.08
2023-05-21T13:45:11.813Z,31.66
2023-05-21T13:47:40.482Z,31.55
2023-05-21T13:50:07.963Z,31.81
2023-05-21T13:52:36.827Z,31.47
2023-05-21T13:55:03.819Z,31.44
2023-05-21T13:57:31.142Z,31.42
2023-05-21T13:59:58.271Z,31.10
2023-05-21T14:02:25.125Z,31.40
2023-05-21T14:04:54.219Z,31.16
2023-05-21T14:07:21.601Z,30.72
2023-05-21T14:09:48.346Z,30.61
2023-05-21T14:12:14.954Z,30.33
2023-05-21T14:14:42.150Z,30.82
2023-05-21T14:17:08.830Z,31.35
2023-05-21T14:19:35.713Z,31.53
2023-05-21T14:22:02.589Z,31.73
2023-05-21T14:24:29.245Z,31.12
2023-05-21T14:26:55.906Z,31.21
2023-05-21T14:29:22.546Z,32.02
2023-05-21T14:31:49.327Z,31.81
2023-05-21T14:34:15.959Z,32.44
2023-05-21T14:36:42.617Z,32.67
2023-05-21T14:39:09.212Z,32.11
2023-05-21T14:41:41.025Z,31.79
2023-05-21T14:44:08.275Z,31.91
2023-05-21T14:46:37.192Z,31.52
2023-05-21T14:49:03.987Z,31.26
2023-05-21T14:51:31.644Z,30.92
2023-05-21T14:54:01.580Z,31.08
2023-05-21T14:56:28.325Z,30.82
2023-05-21T14:58:55.512Z,30.80
2023-05-21T15:01:22.483Z,30.58
2023-05-21T15:03:49.455Z,30.55
2023-05-21T15:06:16.231Z,30.46
2023-05-21T15:08:42.847Z,30.38
2023-05-21T15:11:10.048Z,30.36
2023-05-21T15:13:36.760Z,30.32
2023-05-21T15:16:03.657Z,30.14
2023-05-21T15:21:10.997Z,29.79
2023-05-21T15:23:37.563Z,29.74
2023-05-21T15:26:04.779Z,29.51
2023-05-21T15:28:31.396Z,29.44
2023-05-21T15:30:58.002Z,29.70
2023-05-21T15:33:24.678Z,29.74
2023-05-21T15:35:51.492Z,29.57
2023-05-21T15:38:18.161Z,29.91
2023-05-21T15:40:47.238Z,29.48
2023-05-21T15:43:13.861Z,30.13
2023-05-21T15:45:45.966Z,29.89
2023-05-21T15:48:13.176Z,29.96
2023-05-21T15:50:40.173Z,29.97
2023-05-21T15:53:06.844Z,30.10
2023-05-21T15:55:36.192Z,29.99
2023-05-21T15:58:03.711Z,30.40
2023-05-21T16:00:32.451Z,30.50
2023-05-21T16:02:59.143Z,30.64
2023-05-21T16:05:26.192Z,30.78
2023-05-21T16:07:52.816Z,30.47
2023-05-21T16:10:19.681Z,30.26
2023-05-21T16:12:46.906Z,30.50
2023-05-21T16:15:13.551Z,30.42
2023-05-21T16:17:40.201Z,30.04
2023-05-21T16:20:09.798Z,30.25
2023-05-21T16:22:36.544Z,30.13
2023-05-21T16:25:05.601Z,30.04
2023-05-21T16:27:32.275Z,30.10
2023-05-21T16:29:58.876Z,29.83
2023-05-21T16:32:25.578Z,29.99
2023-05-21T16:34:52.291Z,29.74
2023-05-21T16:37:21.965Z,29.96
2023-05-21T16:39:48.563Z,29.76
2023-05-21T16:42:18.414Z,29.59
2023-05-21T16:44:45.023Z,29.49
2023-05-21T16:47:11.573Z,29.23
2023-05-21T16:49:38.469Z,29.03
2023-05-21T16:52:08.193Z,28.66
2023-05-21T16:54:37.144Z,28.47
2023-05-21T16:57:03.904Z,28.35
2023-05-21T16:59:30.616Z,28.14
2023-05-21T17:01:59.730Z,28.19
2023-05-21T17:04:26.672Z,28.05
2023-05-21T17:06:53.559Z,28.19
2023-05-21T17:09:20.252Z,28.09
2023-05-21T17:11:47.041Z,27.98
2023-05-21T17:14:30.246Z,28.12
2023-05-21T17:17:00.351Z,27.99
2023-05-21T17:19:27.121Z,27.97
2023-05-21T17:21:56.933Z,27.94
2023-05-21T17:24:26.402Z,28.10
2023-05-21T17:26:53.738Z,27.95
2023-05-21T17:29:22.931Z,27.75
2023-05-21T17:31:52.161Z,27.68
2023-05-21T17:34:24.676Z,27.83
2023-05-21T17:36:51.806Z,27.80
2023-05-21T17:39:18.446Z,27.64
2023-05-21T17:41:47.529Z,27.48
2023-05-21T17:44:16.866Z,27.27
2023-05-21T17:46:43.957Z,27.20
2023-05-21T17:49:10.643Z,27.35
2023-05-21T17:51:37.530Z,27.33
2023-05-21T17:54:04.464Z,27.24
2023-05-21T17:56:34.427Z,27.07
2023-05-21T17:59:01.246Z,27.18
2023-05-21T18:01:28.516Z,27.11
2023-05-21T18:03:55.785Z,26.84
2023-05-21T18:06:22.504Z,27.03
2023-05-21T18:08:49.198Z,27.01
2023-05-21T18:11:15.947Z,26.92
2023-05-21T18:13:42.642Z,26.66
2023-05-21T18:16:09.376Z,26.82
2023-05-21T18:18:36.145Z,26.66
2023-05-21T18:21:04.891Z,26.55
2023-05-21T18:23:31.638Z,26.78
2023-05-21T18:25:58.311Z,26.61
2023-05-21T18:28:25.125Z,26.72
2023-05-21T18:30:51.761Z,26.23
2023-05-21T18:33:18.506Z,26.27
2023-05-21T18:35:45.293Z,26.24
2023-05-21T18:38:15.101Z,26.01
2023-05-21T18:40:41.744Z,26.11
2023-05-21T18:43:10.850Z,25.96
2023-05-21T18:45:37.553Z,25.88
2023-05-21T18:48:04.668Z,26.04
2023-05-21T18:50:32.554Z,25.85
2023-05-21T18:52:59.128Z,25.85
2023-05-21T18:55:28.861Z,25.73
2023-05-21T18:57:55.929Z,25.68
2023-05-21T19:00:22.773Z,25.50
2023-05-21T19:02:49.459Z,25.44
2023-05-21T19:05:16.457Z,25.36
2023-05-21T19:07:43.181Z,25.30
2023-05-21T19:10:11.385Z,24.98
2023-05-21T19:12:39.528Z,24.89
2023-05-21T19:15:09.034Z,24.92
2023-05-21T19:17:36.469Z,24.64
2023-05-21T19:20:05.306Z,24.53
2023-05-21T19:22:32.204Z,24.76
2023-05-21T19:24:59.868Z,24.65
2023-05-21T19:27:27.105Z,24.63
2023-05-21T19:29:53.704Z,24.60
2023-05-21T19:32:21.216Z,24.51
2023-05-21T19:34:48.346Z,24.56
2023-05-21T19:37:15.000Z,24.55
2023-05-21T19:39:42.425Z,24.26
2023-05-21T19:42:09.549Z,23.85
2023-05-21T19:44:40.414Z,23.64
2023-05-21T19:47:07.237Z,23.96
2023-05-21T19:49:34.017Z,23.97
2023-05-21T19:52:02.071Z,23.35
2023-05-21T19:54:28.693Z,23.57
2023-05-21T19:56:55.392Z,23.64
2023-05-21T19:59:22.039Z,23.55
2023-05-21T20:01:48.805Z,23.57
2023-05-21T20:04:15.826Z,23.57
2023-05-21T20:06:42.592Z,23.40
2023-05-21T20:09:10.885Z,23.37
2023-05-21T20:11:37.677Z,23.52
2023-05-21T20:14:04.521Z,23.54
2023-05-21T20:16:31.418Z,23.45
2023-05-21T20:18:58.416Z,23.58
2023-05-21T20:21:25.126Z,23.47
2023-05-21T20:23:53.864Z,23.19
2023-05-21T20:26:21.872Z,23.08
2023-05-21T20:28:48.492Z,23.00
2023-05-21T20:31:15.173Z,22.86
2023-05-21T20:33:41.954Z,23.05
2023-05-21T20:36:08.557Z,23.19
2023-05-21T20:38:37.210Z,23.17
2023-05-21T20:41:04.618Z,22.98
2023-05-21T20:43:31.347Z,23.09
2023-05-21T20:46:01.054Z,23.07
2023-05-21T20:48:29.275Z,23.08
2023-05-21T20:50:59.315Z,23.08
2023-05-21T20:53:26.803Z,22.91
2023-05-21T20:55:54.821Z,22.91
2023-05-21T20:58:25.752Z,22.88
2023-05-21T21:00:52.765Z,22.85
2023-05-21T21:03:21.631Z,22.73
2023-05-21T21:05:48.613Z,22.72
2023-05-21T21:08:18.178Z,22.69
2023-05-21T21:10:47.241Z,22.57
2023-05-21T21:13:14.222Z,22.61
2023-05-21T21:15:41.088Z,22.47
2023-05-21T21:18:07.902Z,22.44
2023-05-21T21:20:34.639Z,22.32
2023-05-21T21:23:01.219Z,21.99
2023-05-21T21:25:27.974Z,22.03
2023-05-21T21:27:54.628Z,21.93
2023-05-21T21:30:21.271Z,21.94
2023-05-21T21:32:49.515Z,21.93
2023-05-21T21:35:16.324Z,22.05
2023-05-21T21:37:43.026Z,21.73
2023-05-21T21:40:09.798Z,21.32
2023-05-21T21:42:36.483Z,21.57
2023-05-21T21:45:04.238Z,21.33
2023-05-21T21:47:31.082Z,21.52
2023-05-21T21:49:57.804Z,21.67
2023-05-21T21:52:27.438Z,21.81
2023-05-21T21:54:55.481Z,21.78
2023-05-21T21:57:22.163Z,21.52
2023-05-21T21:59:48.786Z,21.30
2023-05-21T22:02:17.062Z,21.31
2023-05-21T22:04:44.808Z,21.41
2023-05-21T22:07:18.120Z,21.44
2023-05-21T22:09:45.234Z,21.45
2023-05-21T22:12:13.473Z,21.16
2023-05-21T22:14:40.255Z,21.27
2023-05-21T22:17:09.063Z,21.22
2023-05-21T22:19:35.959Z,21.25
2023-05-21T22:22:04.198Z,21.38
2023-05-21T22:24:32.394Z,21.03
2023-05-21T22:26:59.924Z,21.32
2023-05-21T22:29:26.683Z,21.27
2023-05-21T22:31:53.323Z,20.97
2023-05-21T22:34:20.236Z,21.40
2023-05-21T22:36:47.047Z,21.62
2023-05-21T22:39:13.728Z,21.11
2023-05-21T22:41:42.506Z,21.14
2023-05-21T22:44:09.245Z,21.06
2023-05-21T22:46:38.349Z,21.22
2023-05-21T22:49:06.338Z,21.23
2023-05-21T22:51:34.831Z,21.28
2023-05-21T22:54:01.903Z,21.33
2023-05-21T22:56:28.715Z,21.34
2023-05-21T22:58:55.787Z,21.34
2023-05-21T23:01:22.475Z,21.51
2023-05-21T23:03:49.137Z,21.57
2023-05-21T23:06:15.796Z,21.32
2023-05-21T23:08:42.489Z,21.42
2023-05-21T23:11:09.077Z,21.68
2023-05-21T23:13:35.815Z,21.66
2023-05-21T23:16:03.315Z,21.48
2023-05-21T23:18:29.957Z,21.48
2023-05-21T23:20:57.235Z,21.33
2023-05-21T23:23:23.907Z,21.38
2023-05-21T23:25:52.388Z,21.22
2023-05-21T23:28:19.392Z,21.23
2023-05-21T23:30:46.597Z,21.06
2023-05-21T23:33:14.230Z,21.07
2023-05-21T23:35:40.914Z,20.86
2023-05-21T23:38:07.622Z,20.49
2023-05-21T23:40:34.238Z,20.62
2023-05-21T23:43:01.100Z,20.51
2023-05-21T23:45:27.666Z,19.88
2023-05-21T23:47:54.357Z,19.71
2023-05-21T23:50:20.978Z,19.51
2023-05-21T23:52:47.626Z,19.76
2023-05-21T23:55:14.948Z,19.59
2023-05-21T23:57:41.725Z,19.47
